createdAt,value
2022-11-07T00:01:41.304Z,101126.41
2022-11-07T00:04:09.554Z,101127.20
2022-11-07T00:06:38.121Z,101126.23
2022-11-07T00:09:06.329Z,101127.67
2022-11-07T00:11:35.126Z,101126.52
2022-11-07T00:14:03.395Z,101122.89
2022-11-07T00:16:33.122Z,101119.28
2022-11-07T00:19:01.341Z,101120.98
2022-11-07T00:21:29.752Z,101124.11
2022-11-07T00:23:58.015Z,101122.27
2022-11-07T00:26:26.410Z,101125.27
2022-11-07T00:28:54.706Z,101126.39
2022-11-07T00:31:23.078Z,101129.11
2022-11-07T00:33:52.655Z,101130.91
2022-11-07T00:36:27.924Z,101135.42
2022-11-07T00:38:56.784Z,101135.36
2022-11-07T00:41:25.414Z,101134.38
2022-11-07T00:43:54.449Z,101131.48
2022-11-07T00:46:23.061Z,101137.05
2022-11-07T00:48:51.699Z,101138.14
2022-11-07T00:51:27.214Z,101134.23
2022-11-07T00:53:56.079Z,101134.91
2022-11-07T00:56:25.682Z,101131.36
2022-11-07T00:58:59.575Z,101130.89
2022-11-07T01:01:32.552Z,101131.72
2022-11-07T01:04:19.662Z,101128.88
2022-11-07T01:06:48.038Z,101128.31
2022-11-07T01:09:21.193Z,101126.11
2022-11-07T01:11:50.092Z,101125.51
2022-11-07T01:14:22.182Z,101122.71
2022-11-07T01:16:51.290Z,101117.31
2022-11-07T01:19:20.203Z,101113.75
2022-11-07T01:21:49.024Z,101115.50
2022-11-07T01:24:18.632Z,101110.77
2022-11-07T01:26:48.158Z,101115.32
2022-11-07T01:29:18.581Z,101113.98
2022-11-07T01:31:47.334Z,101109.48
2022-11-07T01:34:17.879Z,101111.17
2022-11-07T01:36:46.256Z,101108.65
2022-11-07T01:39:14.532Z,101107.38
2022-11-07T01:41:43.182Z,101108.52
2022-11-07T01:44:11.333Z,101107.35
2022-11-07T01:46:49.498Z,101100.20
2022-11-07T01:49:35.331Z,101100.60
2022-11-07T01:52:10.959Z,101099.92
2022-11-07T01:54:47.563Z,101100.62
2022-11-07T01:57:25.716Z,101102.64
2022-11-07T02:00:00.292Z,101100.14
2022-11-07T02:02:28.967Z,101100.98
2022-11-07T02:04:59.471Z,101098.71
2022-11-07T02:07:29.103Z,101102.58
2022-11-07T02:09:57.742Z,101100.42
2022-11-07T02:12:27.401Z,101099.86
2022-11-07T02:14:56.568Z,101098.59
2022-11-07T02:17:24.872Z,101097.98
2022-11-07T02:19:56.732Z,101100.76
2022-11-07T02:22:53.044Z,101101.28
2022-11-07T02:25:21.612Z,101101.83
2022-11-07T02:27:55.678Z,101100.77
2022-11-07T02:30:34.758Z,101100.20
2022-11-07T02:33:03.466Z,101102.52
2022-11-07T02:35:36.281Z,101099.83
2022-11-07T02:38:27.794Z,101099.89
2022-11-07T02:41:10.326Z,101101.08
2022-11-07T02:43:45.812Z,101095.73
2022-11-07T02:46:15.753Z,101105.85
2022-11-07T02:48:48.336Z,101106.39
2022-11-07T02:51:16.960Z,101108.25
2022-11-07T02:53:45.223Z,101108.52
2022-11-07T02:56:14.109Z,101109.48
2022-11-07T02:58:42.640Z,101112.74
2022-11-07T03:01:12.470Z,101115.02
2022-11-07T03:03:47.999Z,101118.42
2022-11-07T03:06:19.888Z,101120.47
2022-11-07T03:08:48.263Z,101121.61
2022-11-07T03:11:20.049Z,101122.55
2022-11-07T03:13:50.324Z,101123.56
2022-11-07T03:16:21.036Z,101126.64
2022-11-07T03:18:49.294Z,101122.73
2022-11-07T03:21:17.565Z,101123.77
2022-11-07T03:23:45.790Z,101122.79
2022-11-07T03:26:14.128Z,101121.17
2022-11-07T03:28:42.462Z,101120.34
2022-11-07T03:31:10.626Z,101117.03
2022-11-07T03:33:38.935Z,101119.80
2022-11-07T03:36:07.563Z,101118.44
2022-11-07T03:38:35.753Z,101119.67
2022-11-07T03:41:04.077Z,101117.86
2022-11-07T03:43:32.384Z,101117.31
2022-11-07T03:46:00.640Z,101121.11
2022-11-07T03:48:28.830Z,101121.20
2022-11-07T03:50:57.048Z,101123.55
2022-11-07T03:53:26.351Z,101122.52
2022-11-07T03:55:56.244Z,101128.41
2022-11-07T03:58:25.395Z,101120.36
2022-11-07T04:00:53.588Z,101118.67
2022-11-07T04:03:21.814Z,101115.05
2022-11-07T04:05:50.035Z,101111.84
2022-11-07T04:08:18.719Z,101106.56
2022-11-07T04:10:47.078Z,101105.05
2022-11-07T04:13:33.886Z,101107.27
2022-11-07T04:16:20.800Z,101104.88
2022-11-07T04:18:48.984Z,101104.77
2022-11-07T04:21:17.240Z,101102.92
2022-11-07T04:23:45.486Z,101100.84
2022-11-07T04:26:32.255Z,101102.39
2022-11-07T04:29:00.668Z,101099.24
2022-11-07T04:31:29.154Z,101094.77
2022-11-07T04:33:57.361Z,101095.17
2022-11-07T04:36:25.562Z,101097.13
2022-11-07T04:38:53.840Z,101098.85
2022-11-07T04:41:24.732Z,101096.77
2022-11-07T04:43:52.904Z,101102.01
2022-11-07T04:46:23.216Z,101095.52
2022-11-07T04:48:51.428Z,101095.50
2022-11-07T04:51:22.903Z,101095.21
2022-11-07T04:53:51.156Z,101109.11
2022-11-07T04:56:19.358Z,101108.51
2022-11-07T04:58:47.638Z,101109.52
2022-11-07T05:01:15.799Z,101111.89
2022-11-07T05:03:43.980Z,101113.80
2022-11-07T05:06:14.845Z,101114.23
2022-11-07T05:08:43.126Z,101114.55
2022-11-07T05:11:11.328Z,101112.02
2022-11-07T05:13:39.750Z,101113.94
2022-11-07T05:16:19.226Z,101117.39
2022-11-07T05:18:47.489Z,101122.09
2022-11-07T05:21:15.730Z,101123.59
2022-11-07T05:23:44.049Z,101121.93
2022-11-07T05:26:12.259Z,101126.94
2022-11-07T05:28:41.157Z,101119.14
2022-11-07T05:31:15.715Z,101126.27
2022-11-07T05:33:44.854Z,101128.25
2022-11-07T05:36:19.487Z,101129.34
2022-11-07T05:38:50.660Z,101135.42
2022-11-07T05:41:21.713Z,101139.80
2022-11-07T05:43:49.946Z,101141.51
2022-11-07T05:46:18.139Z,101149.36
2022-11-07T05:48:46.340Z,101148.71
2022-11-07T05:51:14.589Z,101154.30
2022-11-07T05:53:42.830Z,101158.25
2022-11-07T05:56:11.049Z,101165.85
2022-11-07T05:58:39.251Z,101163.84
2022-11-07T06:01:07.436Z,101160.57
2022-11-07T06:03:35.719Z,101164.48
2022-11-07T06:06:04.116Z,101164.41
2022-11-07T06:08:32.297Z,101167.76
2022-11-07T06:11:06.139Z,101169.73
2022-11-07T06:13:34.576Z,101170.14
2022-11-07T06:16:02.852Z,101174.00
2022-11-07T06:18:31.051Z,101178.75
2022-11-07T06:21:02.023Z,101177.88
2022-11-07T06:23:30.246Z,101179.80
2022-11-07T06:25:58.565Z,101173.15
2022-11-07T06:28:26.797Z,101175.33
2022-11-07T06:30:59.859Z,101177.41
2022-11-07T06:33:29.887Z,101171.24
2022-11-07T06:36:10.899Z,101174.30
2022-11-07T06:38:40.131Z,101175.88
2022-11-07T06:41:11.958Z,101176.36
2022-11-07T06:43:40.949Z,101174.08
2022-11-07T06:46:13.172Z,101174.84
2022-11-07T06:48:41.340Z,101171.43
2022-11-07T06:51:10.468Z,101172.33
2022-11-07T06:53:39.225Z,101173.33
2022-11-07T06:56:12.762Z,101170.88
2022-11-07T06:58:41.208Z,101169.83
2022-11-07T07:01:13.583Z,101169.41
2022-11-07T07:03:43.727Z,101166.90
2022-11-07T07:06:17.472Z,101160.71
2022-11-07T07:08:46.248Z,101164.58
2022-11-07T07:11:15.946Z,101167.66
2022-11-07T07:13:44.295Z,101167.61
2022-11-07T07:16:13.121Z,101169.27
2022-11-07T07:18:41.375Z,101167.09
2022-11-07T07:21:13.498Z,101168.31
2022-11-07T07:23:41.816Z,101171.69
2022-11-07T07:26:15.733Z,101170.36
2022-11-07T07:28:44.462Z,101166.52
2022-11-07T07:31:15.725Z,101164.66
2022-11-07T07:33:46.948Z,101162.20
2022-11-07T07:36:20.524Z,101162.79
2022-11-07T07:38:50.094Z,101163.17
2022-11-07T07:41:19.509Z,101165.46
2022-11-07T07:43:47.977Z,101169.52
2022-11-07T07:46:22.262Z,101168.50
2022-11-07T07:48:50.475Z,101166.66
2022-11-07T07:51:18.683Z,101167.18
2022-11-07T07:53:47.070Z,101164.35
2022-11-07T07:56:15.451Z,101155.15
2022-11-07T07:58:43.834Z,101148.67
2022-11-07T08:01:12.088Z,101144.80
2022-11-07T08:04:00.047Z,101143.29
2022-11-07T08:06:28.584Z,101143.28
2022-11-07T08:08:56.857Z,101144.41
2022-11-07T08:11:25.061Z,101144.20
2022-11-07T08:13:56.099Z,101139.69
2022-11-07T08:16:28.039Z,101139.09
2022-11-07T08:18:56.455Z,101141.68
2022-11-07T08:21:24.629Z,101136.34
2022-11-07T08:23:54.829Z,101138.84
2022-11-07T08:26:23.050Z,101141.44
2022-11-07T08:28:54.146Z,101144.59
2022-11-07T08:31:22.983Z,101149.16
2022-11-07T08:33:51.244Z,101146.39
2022-11-07T08:36:19.617Z,101140.85
2022-11-07T08:38:47.869Z,101140.64
2022-11-07T08:41:21.030Z,101138.05
2022-11-07T08:43:50.459Z,101138.11
2022-11-07T08:46:18.672Z,101135.16
2022-11-07T08:48:46.920Z,101131.96
2022-11-07T08:51:15.104Z,101130.23
2022-11-07T08:53:43.551Z,101128.48
2022-11-07T08:56:11.742Z,101128.79
2022-11-07T08:58:40.101Z,101124.50
2022-11-07T09:01:10.192Z,101119.71
2022-11-07T09:03:53.001Z,101115.02
2022-11-07T09:06:24.937Z,101114.42
2022-11-07T09:08:53.195Z,101114.13
2022-11-07T09:11:22.145Z,101109.66
2022-11-07T09:13:50.395Z,101109.38
2022-11-07T09:16:19.387Z,101108.96
2022-11-07T09:18:49.380Z,101105.45
2022-11-07T09:21:22.443Z,101109.98
2022-11-07T09:23:52.539Z,101113.91
2022-11-07T09:26:20.917Z,101108.45
2022-11-07T09:28:52.938Z,101111.75
2022-11-07T09:31:23.259Z,101107.98
2022-11-07T09:33:51.449Z,101107.05
2022-11-07T09:36:22.280Z,101100.13
2022-11-07T09:38:51.171Z,101098.35
2022-11-07T09:41:46.553Z,101099.58
2022-11-07T09:45:11.665Z,101094.77
2022-11-07T09:47:59.496Z,101093.71
2022-11-07T09:50:29.359Z,101094.21
2022-11-07T09:53:01.384Z,101100.20
2022-11-07T09:55:38.226Z,101095.02
2022-11-07T09:58:18.952Z,101087.23
2022-11-07T10:00:47.312Z,101088.36
2022-11-07T10:03:16.171Z,101086.77
2022-11-07T10:06:45.562Z,101084.23
2022-11-07T10:09:42.552Z,101077.98
2022-11-07T10:12:44.888Z,101072.06
2022-11-07T10:15:45.109Z,101065.89
2022-11-07T10:18:20.001Z,101057.01
2022-11-07T10:21:39.487Z,101059.31
2022-11-07T10:24:26.386Z,101053.91
2022-11-07T10:26:56.983Z,101045.92
2022-11-07T10:29:44.604Z,101038.13
2022-11-07T10:32:47.857Z,101036.87
2022-11-07T10:35:27.213Z,101031.83
2022-11-07T10:38:01.923Z,101034.70
2022-11-07T10:40:40.836Z,101027.36
2022-11-07T10:43:40.507Z,101019.73
2022-11-07T10:46:19.345Z,101011.40
2022-11-07T10:48:57.875Z,101011.20
2022-11-07T10:51:40.356Z,101012.45
2022-11-07T10:54:32.570Z,101000.10
2022-11-07T10:57:16.562Z,100996.80
2022-11-07T10:59:47.391Z,101001.08
2022-11-07T11:02:48.354Z,100998.73
2022-11-07T11:05:25.963Z,100996.95
2022-11-07T11:08:07.882Z,100989.58
2022-11-07T11:10:39.741Z,100987.66
2022-11-07T11:13:25.666Z,100975.70
2022-11-07T11:15:59.055Z,100969.66
2022-11-07T11:18:30.992Z,100971.21
2022-11-07T11:21:03.096Z,100969.02
2022-11-07T11:23:36.985Z,100967.30
2022-11-07T11:26:21.397Z,100972.11
2022-11-07T11:28:57.435Z,100974.48
2022-11-07T11:31:46.150Z,100977.20
2022-11-07T11:35:01.729Z,100977.93
2022-11-07T11:37:34.911Z,100980.92
2022-11-07T11:40:11.208Z,100978.33
2022-11-07T11:43:11.257Z,100973.36
2022-11-07T11:46:10.978Z,100972.44
2022-11-07T11:48:46.907Z,100966.95
2022-11-07T11:51:43.179Z,100967.92
2022-11-07T11:54:14.967Z,100962.67
2022-11-07T11:56:45.969Z,100962.17
2022-11-07T11:59:38.040Z,100957.21
2022-11-07T12:03:00.335Z,100963.55
2022-11-07T12:05:43.512Z,100964.52
2022-11-07T12:08:23.577Z,100963.51
2022-11-07T12:11:32.544Z,100961.56
2022-11-07T12:14:39.145Z,100955.25
2022-11-07T12:17:39.263Z,100949.23
2022-11-07T12:20:19.890Z,100950.31
2022-11-07T12:22:57.346Z,100948.50
2022-11-07T12:26:05.610Z,100949.38
2022-11-07T12:29:00.604Z,100949.52
2022-11-07T12:31:51.801Z,100942.38
2022-11-07T12:34:41.348Z,100938.23
2022-11-07T12:37:45.527Z,100940.36
2022-11-07T12:40:39.322Z,100936.13
2022-11-07T12:43:26.647Z,100933.70
2022-11-07T12:46:05.256Z,100935.27
2022-11-07T12:49:23.045Z,100928.25
2022-11-07T12:51:57.521Z,100927.52
2022-11-07T12:54:47.073Z,100923.70
2022-11-07T12:57:28.692Z,100921.60
2022-11-07T13:00:07.723Z,100909.78
2022-11-07T13:03:06.782Z,100912.53
2022-11-07T13:05:57.253Z,100913.81
2022-11-07T13:08:42.083Z,100913.89
2022-11-07T13:11:22.147Z,100922.42
2022-11-07T13:14:20.997Z,100930.48
2022-11-07T13:17:03.928Z,100932.36
2022-11-07T13:19:41.498Z,100933.98
2022-11-07T13:22:15.706Z,100935.02
2022-11-07T13:24:55.081Z,100934.57
2022-11-07T13:27:32.102Z,100931.38
2022-11-07T13:30:21.387Z,100932.95
2022-11-07T13:32:51.796Z,100938.53
2022-11-07T13:35:23.002Z,100941.91
2022-11-07T13:37:58.411Z,100939.30
2022-11-07T13:40:33.294Z,100936.11
2022-11-07T13:43:30.576Z,100936.30
2022-11-07T13:46:04.095Z,100940.46
2022-11-07T13:48:54.712Z,100933.73
2022-11-07T13:51:39.872Z,100929.85
2022-11-07T13:54:28.475Z,100931.81
2022-11-07T13:57:06.277Z,100929.43
2022-11-07T13:59:59.573Z,100930.20
2022-11-07T14:02:31.512Z,100932.89
2022-11-07T14:05:18.718Z,100932.48
2022-11-07T14:08:28.803Z,100930.31
2022-11-07T14:10:57.665Z,100927.00
2022-11-07T14:13:28.727Z,100932.25
2022-11-07T14:16:01.123Z,100929.55
2022-11-07T14:18:34.159Z,100938.07
2022-11-07T14:21:02.434Z,100940.98
2022-11-07T14:23:33.053Z,100940.95
2022-11-07T14:26:32.811Z,100935.58
2022-11-07T14:29:02.593Z,100937.22
2022-11-07T14:31:37.063Z,100938.80
2022-11-07T14:34:22.015Z,100938.11
2022-11-07T14:36:57.999Z,100936.98
2022-11-07T14:39:32.188Z,100936.86
2022-11-07T14:42:03.012Z,100941.54
2022-11-07T14:44:54.258Z,100942.16
2022-11-07T14:47:32.014Z,100945.13
2022-11-07T14:50:02.127Z,100944.63
2022-11-07T14:52:38.300Z,100944.15
2022-11-07T14:55:24.722Z,100951.02
2022-11-07T14:57:53.418Z,100952.92
2022-11-07T15:00:22.812Z,100951.00
2022-11-07T15:02:54.274Z,100958.62
2022-11-07T15:05:37.629Z,100959.96
2022-11-07T15:08:05.982Z,100957.77
2022-11-07T15:10:39.698Z,100953.44
2022-11-07T15:13:26.341Z,100953.58
2022-11-07T15:16:06.149Z,100955.55
2022-11-07T15:18:41.579Z,100954.25
2022-11-07T15:21:29.794Z,100952.70
2022-11-07T15:24:00.704Z,100957.31
2022-11-07T15:26:34.872Z,100958.66
2022-11-07T15:29:21.644Z,100960.58
2022-11-07T15:31:49.783Z,100963.29
2022-11-07T15:34:33.668Z,100961.59
2022-11-07T15:37:12.572Z,100960.73
2022-11-07T15:39:40.850Z,100960.52
2022-11-07T15:42:09.084Z,100961.63
2022-11-07T15:44:37.957Z,100964.73
2022-11-07T15:47:06.557Z,100967.33
2022-11-07T15:49:35.089Z,100966.92
2022-11-07T15:52:03.336Z,100968.06
2022-11-07T15:54:31.546Z,100969.02
2022-11-07T15:57:04.442Z,100973.80
2022-11-07T15:59:36.643Z,100979.04
2022-11-07T16:02:12.980Z,100978.53
2022-11-07T16:04:42.081Z,100980.08
2022-11-07T16:07:19.795Z,100983.84
2022-11-07T16:09:48.995Z,100985.75
2022-11-07T16:12:19.357Z,100985.18
2022-11-07T16:14:47.664Z,100981.48
2022-11-07T16:17:18.804Z,100985.02
2022-11-07T16:19:47.361Z,100986.10
2022-11-07T16:22:16.787Z,100985.23
2022-11-07T16:24:44.973Z,100990.33
2022-11-07T16:27:17.407Z,100989.45
2022-11-07T16:29:45.957Z,100991.54
2022-11-07T16:32:17.906Z,100993.23
2022-11-07T16:34:47.570Z,100992.52
2022-11-07T16:37:15.872Z,100996.85
2022-11-07T16:39:44.508Z,100994.23
2022-11-07T16:42:16.312Z,100995.45
2022-11-07T16:44:44.804Z,100995.98
2022-11-07T16:47:16.148Z,101001.08
2022-11-07T16:49:44.536Z,101004.50
2022-11-07T16:52:15.282Z,101007.38
2022-11-07T16:54:44.052Z,101007.80
2022-11-07T16:57:15.090Z,101009.52
2022-11-07T16:59:44.735Z,101005.45
2022-11-07T17:02:22.776Z,101006.82
2022-11-07T17:04:53.524Z,101008.75
2022-11-07T17:07:23.948Z,101005.80
2022-11-07T17:09:52.295Z,101006.73
2022-11-07T17:12:23.682Z,101011.85
2022-11-07T17:14:52.811Z,101011.23
2022-11-07T17:17:21.432Z,101008.91
2022-11-07T17:19:49.710Z,101011.65
2022-11-07T17:22:17.946Z,101010.05
2022-11-07T17:24:46.188Z,101005.54
2022-11-07T17:27:26.004Z,101005.74
2022-11-07T17:29:55.567Z,101002.40
2022-11-07T17:32:23.818Z,100997.69
2022-11-07T17:35:11.060Z,100996.52
2022-11-07T17:37:40.261Z,100989.77
2022-11-07T17:40:17.520Z,100996.40
2022-11-07T17:42:45.787Z,100995.79
2022-11-07T17:45:14.180Z,100999.35
2022-11-07T17:47:42.368Z,100998.06
2022-11-07T17:50:15.946Z,100999.64
2022-11-07T17:52:44.244Z,100997.27
2022-11-07T17:55:12.581Z,100993.27
2022-11-07T17:57:42.476Z,100996.53
2022-11-07T18:00:31.120Z,100989.95
2022-11-07T18:02:59.654Z,100988.34
2022-11-07T18:05:33.375Z,100986.72
2022-11-07T18:08:02.720Z,100981.92
2022-11-07T18:10:31.164Z,100977.08
2022-11-07T18:12:59.417Z,100974.36
2022-11-07T18:15:27.803Z,100972.33
2022-11-07T18:17:55.970Z,100975.88
2022-11-07T18:20:24.254Z,100982.36
2022-11-07T18:22:52.471Z,100989.98
2022-11-07T18:25:20.864Z,100986.89
2022-11-07T18:27:49.202Z,100982.14
2022-11-07T18:30:17.611Z,100980.80
2022-11-07T18:32:45.791Z,100985.83
2022-11-07T18:35:14.004Z,100989.39
2022-11-07T18:37:42.240Z,100984.64
2022-11-07T18:40:11.808Z,100987.48
2022-11-07T18:42:46.314Z,100979.63
2022-11-07T18:45:15.578Z,100980.89
2022-11-07T18:47:43.845Z,100986.98
2022-11-07T18:50:12.204Z,100991.05
2022-11-07T18:52:40.395Z,100988.20
2022-11-07T18:55:09.757Z,100982.27
2022-11-07T18:57:38.066Z,100986.30
2022-11-07T19:00:12.207Z,100988.18
2022-11-07T19:02:41.741Z,100987.95
2022-11-07T19:05:09.972Z,100989.95
2022-11-07T19:07:42.350Z,100993.46
2022-11-07T19:10:14.968Z,100996.48
2022-11-07T19:12:43.657Z,101000.37
2022-11-07T19:15:12.646Z,100999.97
2022-11-07T19:17:40.850Z,100998.23
2022-11-07T19:20:10.135Z,100993.24
2022-11-07T19:22:38.326Z,100988.39
2022-11-07T19:25:06.850Z,100985.45
2022-11-07T19:27:35.463Z,100990.83
2022-11-07T19:30:06.449Z,100989.38
2022-11-07T19:32:34.795Z,100993.67
2022-11-07T19:35:03.051Z,100994.13
2022-11-07T19:37:31.262Z,100996.06
2022-11-07T19:39:59.451Z,100992.27
2022-11-07T19:42:28.745Z,100990.23
2022-11-07T19:44:57.058Z,100990.27
2022-11-07T19:47:25.388Z,100989.77
2022-11-07T19:49:54.080Z,100989.42
2022-11-07T19:52:22.358Z,100992.59
2022-11-07T19:54:52.104Z,100991.36
2022-11-07T19:57:20.385Z,100995.00
2022-11-07T19:59:49.040Z,100995.06
2022-11-07T20:02:32.392Z,100993.19
2022-11-07T20:05:02.347Z,100995.25
2022-11-07T20:07:30.571Z,100996.85
2022-11-07T20:09:59.344Z,100999.14
2022-11-07T20:12:27.701Z,100998.13
2022-11-07T20:14:56.127Z,101002.13
2022-11-07T20:17:24.368Z,100999.46
2022-11-07T20:19:52.646Z,100998.55
2022-11-07T20:22:20.957Z,100996.36
2022-11-07T20:24:49.208Z,100996.54
2022-11-07T20:27:17.436Z,101000.11
2022-11-07T20:29:45.638Z,100998.50
2022-11-07T20:32:13.973Z,100996.28
2022-11-07T20:34:42.143Z,100994.22
2022-11-07T20:37:10.412Z,100995.96
2022-11-07T20:39:42.478Z,100999.58
2022-11-07T20:42:10.655Z,100997.59
2022-11-07T20:44:38.843Z,100996.58
2022-11-07T20:47:07.372Z,100994.66
2022-11-07T20:49:36.117Z,100992.48
2022-11-07T20:52:07.143Z,100994.95
2022-11-07T20:54:37.185Z,100991.40
2022-11-07T20:57:05.643Z,100990.80
2022-11-07T20:59:33.873Z,100995.85
2022-11-07T21:02:03.897Z,100994.90
2022-11-07T21:04:50.040Z,100992.02
2022-11-07T21:07:22.746Z,100990.93
2022-11-07T21:09:51.293Z,100989.88
2022-11-07T21:12:19.485Z,100985.54
2022-11-07T21:14:47.700Z,100982.09
2022-11-07T21:17:16.842Z,100980.61
2022-11-07T21:19:45.050Z,100979.61
2022-11-07T21:22:13.287Z,100978.52
2022-11-07T21:24:41.534Z,100977.88
2022-11-07T21:27:10.052Z,100980.09
2022-11-07T21:29:38.449Z,100980.56
2022-11-07T21:32:08.688Z,100980.74
2022-11-07T21:34:37.931Z,100979.27
2022-11-07T21:37:10.091Z,100980.39
2022-11-07T21:39:38.329Z,100981.79
2022-11-07T21:42:06.510Z,100981.92
2022-11-07T21:44:34.707Z,100980.16
2022-11-07T21:47:02.964Z,100980.35
2022-11-07T21:49:31.439Z,100976.61
2022-11-07T21:51:59.614Z,100978.71
2022-11-07T21:54:27.993Z,100979.73
2022-11-07T21:56:56.171Z,100978.94
2022-11-07T21:59:24.478Z,100977.98
2022-11-07T22:01:54.857Z,100979.90
2022-11-07T22:04:23.537Z,100975.88
2022-11-07T22:06:51.856Z,100976.42
2022-11-07T22:09:21.404Z,100976.09
2022-11-07T22:11:50.334Z,100983.38
2022-11-07T22:14:22.202Z,100986.11
2022-11-07T22:16:51.536Z,100981.94
2022-11-07T22:19:19.814Z,100973.66
2022-11-07T22:21:49.359Z,100972.45
2022-11-07T22:24:17.607Z,100981.28
2022-11-07T22:26:46.688Z,100979.65
2022-11-07T22:29:14.902Z,100977.17
2022-11-07T22:31:43.104Z,100977.48
2022-11-07T22:34:11.334Z,100973.17
2022-11-07T22:36:39.552Z,100977.33
2022-11-07T22:39:07.850Z,100976.80
2022-11-07T22:41:36.118Z,100972.67
2022-11-07T22:44:04.588Z,100974.48
2022-11-07T22:46:32.788Z,100975.35
2022-11-07T22:49:01.024Z,100978.92
2022-11-07T22:51:35.414Z,100977.29
2022-11-07T22:54:11.897Z,100982.44
2022-11-07T22:56:41.288Z,100980.23
2022-11-07T22:59:11.564Z,100983.44
2022-11-07T23:01:42.202Z,100983.52
2022-11-07T23:04:15.389Z,100979.86
2022-11-07T23:06:44.523Z,100983.26
2022-11-07T23:09:17.103Z,100983.17
2022-11-07T23:11:47.664Z,100984.27
2022-11-07T23:14:20.272Z,100982.60
2022-11-07T23:16:53.499Z,100980.40
2022-11-07T23:19:25.331Z,100980.99
2022-11-07T23:21:55.236Z,100983.33
2022-11-07T23:24:23.819Z,100984.52
2022-11-07T23:26:52.018Z,100983.29
2022-11-07T23:29:24.034Z,100985.66
2022-11-07T23:31:53.147Z,100986.65
2022-11-07T23:34:22.550Z,100989.16
2022-11-07T23:36:52.617Z,100986.58
2022-11-07T23:39:23.022Z,100995.95
2022-11-07T23:41:51.321Z,101000.88
2022-11-07T23:44:19.525Z,100997.77
2022-11-07T23:47:06.358Z,100996.85
2022-11-07T23:50:14.977Z,100993.61
2022-11-07T23:52:43.200Z,100996.14
2022-11-07T23:55:30.090Z,100986.55
2022-11-07T23:58:17.127Z,100984.86
